createdAt,value
2022-12-11T00:00:34.099Z,53.70
2022-12-11T00:03:00.678Z,53.10
2022-12-11T00:05:27.283Z,53.00
2022-12-11T00:07:53.819Z,52.70
2022-12-11T00:10:20.380Z,53.10
2022-12-11T00:12:46.915Z,53.10
2022-12-11T00:15:13.696Z,53.10
2022-12-11T00:17:40.363Z,53.30
2022-12-11T00:20:07.952Z,55.80
2022-12-11T00:22:34.571Z,55.40
2022-12-11T00:25:01.081Z,57.00
2022-12-11T00:27:27.725Z,57.30
2022-12-11T00:29:54.260Z,57.70
2022-12-11T00:32:20.856Z,60.00
2022-12-11T00:34:47.380Z,60.60
2022-12-11T00:37:13.959Z,61.20
2022-12-11T00:39:40.581Z,62.10
2022-12-11T00:42:07.769Z,62.70
2022-12-11T00:44:34.490Z,62.80
2022-12-11T00:47:01.045Z,63.30
2022-12-11T00:49:27.673Z,64.80
2022-12-11T00:51:54.199Z,66.50
2022-12-11T00:54:20.767Z,67.10
2022-12-11T00:56:47.324Z,66.60
2022-12-11T00:59:13.908Z,67.60
2022-12-11T01:01:40.450Z,67.60
2022-12-11T01:04:07.062Z,68.00
2022-12-11T01:06:33.705Z,67.40
2022-12-11T01:09:18.871Z,68.60
2022-12-11T01:11:45.447Z,68.50
2022-12-11T01:14:12.084Z,69.40
2022-12-11T01:16:38.712Z,69.20
2022-12-11T01:19:05.300Z,69.00
2022-12-11T01:21:31.949Z,68.90
2022-12-11T01:23:58.509Z,69.00
2022-12-11T01:26:25.163Z,70.40
2022-12-11T01:28:51.804Z,71.00
2022-12-11T01:31:19.334Z,71.20
2022-12-11T01:33:46.232Z,71.10
2022-12-11T01:36:18.061Z,70.90
2022-12-11T01:38:45.053Z,71.10
2022-12-11T01:41:11.703Z,71.10
2022-12-11T01:43:57.193Z,71.10
2022-12-11T01:46:24.245Z,71.10
2022-12-11T01:48:50.846Z,73.00
2022-12-11T01:51:17.687Z,73.50
2022-12-11T01:53:48.216Z,75.80
2022-12-11T01:56:14.888Z,77.40
2022-12-11T01:58:47.784Z,78.80
2022-12-11T02:01:18.423Z,79.20
2022-12-11T02:03:45.003Z,78.90
2022-12-11T02:06:30.416Z,79.10
2022-12-11T02:08:57.055Z,79.20
2022-12-11T02:11:25.844Z,79.10
2022-12-11T02:14:01.925Z,79.20
2022-12-11T02:16:54.807Z,79.70
2022-12-11T02:19:45.697Z,78.90
2022-12-11T02:22:17.856Z,78.30
2022-12-11T02:24:44.463Z,79.10
2022-12-11T02:27:11.042Z,77.90
2022-12-11T02:29:51.820Z,77.20
2022-12-11T02:32:24.525Z,77.10
2022-12-11T02:34:55.968Z,77.00
2022-12-11T02:37:24.596Z,75.20
2022-12-11T02:39:53.042Z,74.70
2022-12-11T02:42:20.364Z,72.50
2022-12-11T02:44:48.580Z,72.60
2022-12-11T02:47:16.398Z,73.00
2022-12-11T02:49:44.396Z,73.20
2022-12-11T02:52:12.359Z,73.20
2022-12-11T02:54:39.435Z,72.70
2022-12-11T02:57:15.175Z,73.30
2022-12-11T02:59:44.050Z,73.90
2022-12-11T03:02:11.856Z,71.40
2022-12-11T03:04:38.883Z,71.10
2022-12-11T03:07:15.744Z,71.00
2022-12-11T03:09:43.480Z,71.10
2022-12-11T03:12:11.638Z,71.10
2022-12-11T03:14:39.385Z,71.10
2022-12-11T03:17:14.501Z,71.00
2022-12-11T03:20:05.040Z,71.10
2022-12-11T03:22:36.979Z,71.00
2022-12-11T03:25:15.448Z,71.10
2022-12-11T03:27:41.953Z,69.50
2022-12-11T03:30:11.035Z,68.30
2022-12-11T03:32:50.170Z,66.80
2022-12-11T03:35:23.205Z,66.60
2022-12-11T03:37:51.170Z,65.30
2022-12-11T03:40:19.209Z,64.30
2022-12-11T03:42:47.268Z,64.40
2022-12-11T03:45:14.498Z,63.30
2022-12-11T03:47:41.299Z,62.50
2022-12-11T03:50:09.593Z,62.50
2022-12-11T03:52:42.511Z,62.40
2022-12-11T03:55:13.246Z,65.20
2022-12-11T03:57:39.889Z,65.00
2022-12-11T04:00:24.882Z,64.90
2022-12-11T04:03:13.568Z,66.00
2022-12-11T04:05:41.706Z,67.80
2022-12-11T04:08:08.558Z,68.90
2022-12-11T04:10:35.200Z,68.90
2022-12-11T04:13:01.734Z,69.30
2022-12-11T04:15:28.291Z,69.60
2022-12-11T04:18:13.458Z,69.30
2022-12-11T04:20:58.552Z,68.40
2022-12-11T04:23:43.596Z,68.60
2022-12-11T04:26:12.343Z,66.50
2022-12-11T04:28:39.330Z,66.20
2022-12-11T04:31:06.381Z,65.80
2022-12-11T04:33:32.991Z,65.80
2022-12-11T04:36:00.257Z,66.40
2022-12-11T04:38:26.984Z,66.40
2022-12-11T04:41:00.883Z,66.40
2022-12-11T04:43:27.687Z,65.70
2022-12-11T04:46:04.690Z,66.10
2022-12-11T04:48:31.257Z,66.10
2022-12-11T04:50:57.932Z,66.10
2022-12-11T04:53:24.987Z,66.10
2022-12-11T04:55:51.868Z,66.10
2022-12-11T04:58:18.390Z,66.50
2022-12-11T05:00:45.267Z,66.50
2022-12-11T05:03:11.918Z,66.50
2022-12-11T05:05:38.498Z,66.40
2022-12-11T05:08:05.453Z,66.70
2022-12-11T05:10:32.021Z,66.50
2022-12-11T05:12:58.612Z,67.90
2022-12-11T05:15:25.159Z,68.30
2022-12-11T05:17:51.666Z,68.50
2022-12-11T05:20:18.267Z,67.90
2022-12-11T05:22:44.827Z,67.70
2022-12-11T05:25:11.621Z,67.90
2022-12-11T05:27:38.377Z,68.50
2022-12-11T05:30:05.660Z,69.10
2022-12-11T05:32:32.219Z,68.80
2022-12-11T05:34:58.831Z,68.00
2022-12-11T05:37:25.395Z,67.20
2022-12-11T05:39:51.922Z,66.10
2022-12-11T05:42:18.570Z,65.20
2022-12-11T05:44:45.119Z,64.20
2022-12-11T05:47:11.652Z,62.50
2022-12-11T05:49:38.176Z,63.30
2022-12-11T05:52:04.807Z,61.90
2022-12-11T05:54:31.364Z,61.90
2022-12-11T05:56:57.947Z,61.80
2022-12-11T05:59:24.556Z,61.80
2022-12-11T06:01:51.373Z,61.80
2022-12-11T06:04:18.100Z,61.80
2022-12-11T06:06:44.858Z,60.20
2022-12-11T06:09:13.825Z,60.70
2022-12-11T06:11:40.491Z,60.60
2022-12-11T06:14:07.096Z,61.20
2022-12-11T06:16:33.763Z,61.00
2022-12-11T06:19:00.356Z,61.60
2022-12-11T06:21:29.593Z,59.50
2022-12-11T06:23:57.264Z,58.70
2022-12-11T06:26:24.145Z,58.60
2022-12-11T06:28:50.808Z,58.00
2022-12-11T06:31:17.933Z,57.90
2022-12-11T06:33:44.691Z,56.90
2022-12-11T06:36:13.047Z,56.70
2022-12-11T06:38:39.942Z,56.60
2022-12-11T06:41:07.576Z,57.00
2022-12-11T06:43:35.011Z,57.10
2022-12-11T06:46:05.229Z,56.70
2022-12-11T06:48:32.094Z,56.40
2022-12-11T06:50:58.824Z,56.40
2022-12-11T06:53:25.348Z,56.70
2022-12-11T06:55:51.908Z,56.80
2022-12-11T06:58:18.414Z,57.00
2022-12-11T07:00:44.954Z,56.60
2022-12-11T07:03:11.662Z,58.00
2022-12-11T07:05:38.183Z,57.70
2022-12-11T07:08:04.800Z,57.30
2022-12-11T07:10:32.333Z,57.40
2022-12-11T07:12:58.890Z,59.30
2022-12-11T07:15:25.615Z,58.40
2022-12-11T07:17:52.251Z,60.80
2022-12-11T07:20:18.813Z,62.60
2022-12-11T07:22:46.860Z,65.40
2022-12-11T07:25:13.962Z,66.70
2022-12-11T07:27:41.479Z,67.70
2022-12-11T07:30:08.764Z,69.30
2022-12-11T07:32:35.425Z,69.40
2022-12-11T07:35:02.037Z,69.40
2022-12-11T07:37:28.580Z,69.40
2022-12-11T07:39:55.124Z,69.30
2022-12-11T07:42:21.649Z,69.40
2022-12-11T07:44:48.159Z,70.20
2022-12-11T07:47:15.086Z,71.40
2022-12-11T07:49:41.589Z,71.90
2022-12-11T07:52:08.346Z,72.10
2022-12-11T07:54:34.921Z,71.30
2022-12-11T07:57:01.617Z,71.50
2022-12-11T07:59:28.184Z,71.40
2022-12-11T08:01:54.744Z,69.80
2022-12-11T08:04:21.273Z,69.80
2022-12-11T08:06:47.942Z,69.70
2022-12-11T08:09:20.749Z,68.40
2022-12-11T08:11:50.987Z,68.10
2022-12-11T08:14:17.681Z,66.80
2022-12-11T08:16:44.720Z,65.70
2022-12-11T08:19:11.978Z,65.30
2022-12-11T08:21:38.891Z,64.40
2022-12-11T08:24:05.737Z,64.00
2022-12-11T08:26:32.857Z,62.60
2022-12-11T08:29:00.573Z,61.80
2022-12-11T08:31:27.259Z,61.80
2022-12-11T08:33:55.129Z,61.90
2022-12-11T08:36:23.283Z,60.00
2022-12-11T08:38:50.299Z,58.50
2022-12-11T08:41:17.984Z,59.00
2022-12-11T08:43:44.684Z,57.20
2022-12-11T08:46:11.760Z,57.60
2022-12-11T08:48:39.235Z,55.70
2022-12-11T08:51:06.818Z,52.40
2022-12-11T08:53:33.813Z,52.40
2022-12-11T08:56:04.048Z,52.40
2022-12-11T08:58:30.608Z,52.40
2022-12-11T09:00:57.566Z,52.40
2022-12-11T09:03:24.590Z,52.50
2022-12-11T09:05:51.390Z,51.10
2022-12-11T09:08:18.037Z,52.40
2022-12-11T09:10:44.650Z,51.40
2022-12-11T09:13:11.167Z,51.80
2022-12-11T09:15:40.484Z,52.60
2022-12-11T09:18:07.396Z,51.50
2022-12-11T09:20:33.992Z,49.70
2022-12-11T09:23:01.206Z,49.70
2022-12-11T09:25:27.796Z,50.40
2022-12-11T09:27:54.311Z,49.80
2022-12-11T09:30:20.839Z,49.00
2022-12-11T09:32:47.388Z,47.40
2022-12-11T09:35:14.003Z,48.60
2022-12-11T09:37:40.597Z,47.80
2022-12-11T09:40:09.358Z,46.80
2022-12-11T09:42:47.001Z,49.70
2022-12-11T09:45:15.042Z,50.10
2022-12-11T09:47:43.953Z,50.50
2022-12-11T09:50:10.464Z,50.20
2022-12-11T09:52:57.021Z,50.70
2022-12-11T09:55:25.015Z,50.20
2022-12-11T09:57:57.890Z,49.00
2022-12-11T10:00:39.631Z,47.90
2022-12-11T10:03:25.295Z,47.00
2022-12-11T10:05:57.378Z,44.40
2022-12-11T10:08:33.587Z,42.60
2022-12-11T10:11:05.685Z,42.60
2022-12-11T10:13:35.366Z,42.50
2022-12-11T10:16:14.276Z,42.50
2022-12-11T10:18:41.171Z,42.60
2022-12-11T10:21:07.892Z,39.50
2022-12-11T10:23:38.167Z,40.10
2022-12-11T10:26:24.945Z,40.90
2022-12-11T10:28:51.978Z,40.90
2022-12-11T10:31:32.923Z,37.90
2022-12-11T10:34:11.960Z,35.00
2022-12-11T10:36:39.296Z,36.20
2022-12-11T10:39:14.183Z,36.40
2022-12-11T10:41:42.886Z,34.80
2022-12-11T10:44:17.585Z,34.00
2022-12-11T10:46:44.902Z,32.80
2022-12-11T10:49:26.399Z,33.50
2022-12-11T10:51:54.339Z,80.40
2022-12-11T10:54:29.729Z,18.20
2022-12-11T10:56:56.587Z,19.40
2022-12-11T10:59:31.183Z,21.50
2022-12-11T11:01:57.915Z,23.40
2022-12-11T11:04:29.511Z,29.00
2022-12-11T11:07:28.688Z,29.30
2022-12-11T11:10:24.291Z,30.70
2022-12-11T11:12:59.676Z,32.10
2022-12-11T11:15:27.694Z,32.00
2022-12-11T11:17:56.238Z,32.10
2022-12-11T11:20:24.574Z,33.70
2022-12-11T11:22:52.925Z,31.90
2022-12-11T11:25:21.646Z,33.70
2022-12-11T11:27:53.311Z,34.70
2022-12-11T11:30:24.198Z,36.90
2022-12-11T11:32:54.373Z,38.10
2022-12-11T11:35:23.020Z,38.40
2022-12-11T11:37:55.731Z,40.20
2022-12-11T11:40:30.368Z,39.10
2022-12-11T11:42:59.770Z,35.50
2022-12-11T11:45:31.847Z,37.40
2022-12-11T11:48:17.474Z,36.20
2022-12-11T11:50:45.636Z,37.50
2022-12-11T11:53:16.925Z,34.90
2022-12-11T11:55:55.570Z,33.50
2022-12-11T11:58:27.614Z,34.70
2022-12-11T12:00:54.747Z,34.70
2022-12-11T12:03:22.568Z,34.00
2022-12-11T12:05:49.066Z,33.70
2022-12-11T12:08:24.391Z,33.90
2022-12-11T12:11:00.496Z,33.90
2022-12-11T12:13:49.864Z,34.40
2022-12-11T12:16:51.433Z,32.20
2022-12-11T12:19:29.199Z,34.10
2022-12-11T12:21:55.991Z,33.70
2022-12-11T12:24:34.873Z,33.80
2022-12-11T12:27:17.602Z,33.50
2022-12-11T12:29:59.145Z,32.10
2022-12-11T12:32:36.828Z,34.30
2022-12-11T12:35:22.124Z,35.00
2022-12-11T12:37:48.768Z,32.20
2022-12-11T12:40:21.472Z,30.30
2022-12-11T12:42:49.837Z,31.00
2022-12-11T12:45:16.376Z,28.30
2022-12-11T12:47:46.701Z,29.40
2022-12-11T12:50:18.533Z,28.10
2022-12-11T12:52:45.315Z,27.50
2022-12-11T12:55:28.877Z,25.80
2022-12-11T12:58:00.174Z,26.10
2022-12-11T13:00:28.329Z,26.00
2022-12-11T13:02:56.186Z,23.10
2022-12-11T13:05:24.292Z,23.10
2022-12-11T13:07:54.516Z,23.10
2022-12-11T13:10:30.209Z,24.20
2022-12-11T13:12:57.151Z,23.10
2022-12-11T13:15:30.820Z,23.20
2022-12-11T13:17:57.987Z,24.30
2022-12-11T13:20:26.080Z,25.20
2022-12-11T13:22:55.435Z,25.10
2022-12-11T13:25:24.587Z,23.40
2022-12-11T13:27:51.169Z,23.40
2022-12-11T13:30:24.835Z,21.70
2022-12-11T13:33:00.415Z,20.80
2022-12-11T13:35:27.187Z,19.80
2022-12-11T13:37:55.208Z,20.40
2022-12-11T13:40:23.954Z,18.30
2022-12-11T13:42:52.828Z,18.70
2022-12-11T13:45:22.900Z,18.30
2022-12-11T13:47:49.667Z,18.30
2022-12-11T13:50:20.572Z,17.70
2022-12-11T13:52:54.229Z,18.10
2022-12-11T13:55:23.127Z,18.90
2022-12-11T13:57:49.648Z,18.50
2022-12-11T14:00:23.798Z,18.70
2022-12-11T14:02:51.437Z,18.70
2022-12-11T14:05:18.231Z,19.10
2022-12-11T14:07:49.123Z,20.90
2022-12-11T14:10:18.551Z,20.60
2022-12-11T14:12:48.683Z,20.50
2022-12-11T14:15:15.598Z,21.20
2022-12-11T14:17:47.078Z,21.70
2022-12-11T14:20:21.836Z,19.90
2022-12-11T14:22:48.431Z,20.60
2022-12-11T14:25:24.723Z,22.80
2022-12-11T14:27:52.671Z,21.10
2022-12-11T14:30:24.348Z,19.70
2022-12-11T14:32:51.685Z,18.90
2022-12-11T14:35:28.624Z,18.30
2022-12-11T14:37:56.241Z,18.30
2022-12-11T14:40:25.050Z,19.50
2022-12-11T14:43:00.442Z,19.20
2022-12-11T14:45:34.561Z,18.80
2022-12-11T14:48:02.149Z,18.50
2022-12-11T14:50:37.969Z,18.80
2022-12-11T14:53:13.800Z,17.60
2022-12-11T14:55:40.952Z,18.10
2022-12-11T14:58:15.080Z,19.30
2022-12-11T15:00:41.656Z,20.20
2022-12-11T15:03:28.456Z,20.00
2022-12-11T15:05:55.934Z,20.20
2022-12-11T15:08:26.816Z,21.40
2022-12-11T15:10:59.691Z,22.30
2022-12-11T15:13:26.558Z,22.30
2022-12-11T15:15:53.673Z,22.50
2022-12-11T15:18:23.249Z,23.50
2022-12-11T15:20:52.202Z,23.90
2022-12-11T15:23:18.955Z,25.40
2022-12-11T15:25:52.531Z,25.60
2022-12-11T15:28:45.215Z,26.50
2022-12-11T15:31:25.470Z,26.90
2022-12-11T15:33:52.346Z,27.00
2022-12-11T15:36:23.716Z,26.30
2022-12-11T15:38:50.381Z,26.30
2022-12-11T15:41:20.945Z,27.30
2022-12-11T15:43:47.846Z,28.00
2022-12-11T15:46:14.414Z,29.70
2022-12-11T15:48:40.979Z,31.00
2022-12-11T15:51:07.540Z,31.00
2022-12-11T15:53:34.081Z,31.00
2022-12-11T15:56:00.682Z,31.00
2022-12-11T15:58:27.949Z,30.90
2022-12-11T16:00:54.935Z,30.60
2022-12-11T16:03:22.536Z,30.90
2022-12-11T16:05:49.866Z,30.90
2022-12-11T16:08:17.747Z,30.90
2022-12-11T16:10:44.763Z,30.90
2022-12-11T16:13:11.460Z,30.90
2022-12-11T16:15:38.814Z,30.90
2022-12-11T16:18:06.947Z,30.90
2022-12-11T16:20:33.690Z,30.80
2022-12-11T16:23:00.500Z,30.90
2022-12-11T16:25:27.133Z,30.80
2022-12-11T16:27:58.355Z,31.10
2022-12-11T16:30:25.547Z,30.80
2022-12-11T16:32:52.342Z,30.80
2022-12-11T16:35:19.315Z,30.80
2022-12-11T16:37:48.320Z,30.70
2022-12-11T16:40:14.943Z,30.70
2022-12-11T16:42:41.513Z,95.00
2022-12-11T16:45:11.158Z,95.30
2022-12-11T16:47:37.968Z,46.50
2022-12-11T16:50:04.665Z,14.90
2022-12-11T16:52:31.915Z,9.00
2022-12-11T16:54:58.507Z,3.10
2022-12-11T16:57:25.542Z,1.00
2022-12-11T16:59:52.211Z,1.00
2022-12-11T17:02:18.817Z,1.00
2022-12-11T17:04:52.102Z,1.00
2022-12-11T17:07:20.339Z,1.00
2022-12-11T17:09:47.073Z,1.00
2022-12-11T17:12:13.821Z,1.00
2022-12-11T17:14:40.380Z,3.90
2022-12-11T17:17:07.110Z,9.10
2022-12-11T17:19:33.828Z,14.30
2022-12-11T17:22:00.406Z,15.40
2022-12-11T17:24:27.021Z,18.30
2022-12-11T17:26:54.582Z,21.10
2022-12-11T17:29:21.940Z,22.60
2022-12-11T17:31:48.473Z,24.90
2022-12-11T17:34:15.859Z,26.40
2022-12-11T17:36:42.389Z,27.70
2022-12-11T17:39:09.100Z,28.00
2022-12-11T17:41:35.756Z,28.40
2022-12-11T17:44:02.265Z,28.50
2022-12-11T17:46:28.882Z,31.20
2022-12-11T17:48:56.314Z,31.20
2022-12-11T17:51:24.431Z,31.20
2022-12-11T17:53:51.921Z,31.30
2022-12-11T17:56:18.545Z,31.30
2022-12-11T17:58:45.078Z,32.40
2022-12-11T18:01:13.108Z,32.20
2022-12-11T18:03:39.777Z,34.70
2022-12-11T18:06:08.168Z,35.00
2022-12-11T18:08:34.701Z,35.10
2022-12-11T18:11:05.775Z,35.10
2022-12-11T18:13:32.313Z,35.30
2022-12-11T18:16:06.957Z,35.50
2022-12-11T18:18:33.626Z,36.20
2022-12-11T18:21:00.584Z,37.60
2022-12-11T18:23:27.537Z,38.90
2022-12-11T18:25:54.553Z,40.40
2022-12-11T18:28:21.232Z,41.10
2022-12-11T18:30:47.839Z,41.90
2022-12-11T18:33:14.512Z,42.00
2022-12-11T18:35:41.272Z,42.50
2022-12-11T18:38:07.820Z,43.90
2022-12-11T18:40:34.397Z,45.20
2022-12-11T18:43:00.956Z,46.40
2022-12-11T18:45:27.512Z,47.70
2022-12-11T18:47:56.394Z,48.40
2022-12-11T18:50:23.023Z,48.30
2022-12-11T18:52:53.991Z,48.10
2022-12-11T18:55:20.876Z,48.60
2022-12-11T18:57:47.491Z,49.20
2022-12-11T19:00:14.291Z,49.90
2022-12-11T19:02:40.828Z,50.00
2022-12-11T19:05:07.665Z,50.00
2022-12-11T19:07:34.250Z,52.40
2022-12-11T19:10:00.849Z,52.50
2022-12-11T19:12:27.442Z,52.40
2022-12-11T19:14:54.539Z,52.40
2022-12-11T19:17:21.090Z,52.30
2022-12-11T19:19:47.757Z,52.40
2022-12-11T19:22:15.024Z,53.50
2022-12-11T19:24:41.636Z,53.10
2022-12-11T19:27:13.242Z,53.40
2022-12-11T19:29:40.278Z,52.40
2022-12-11T19:32:06.835Z,52.40
2022-12-11T19:34:33.377Z,52.70
2022-12-11T19:37:00.243Z,53.10
2022-12-11T19:39:26.826Z,52.60
2022-12-11T19:41:53.345Z,52.50
2022-12-11T19:44:19.853Z,52.50
2022-12-11T19:46:46.419Z,53.80
2022-12-11T19:49:13.128Z,55.90
2022-12-11T19:51:40.945Z,55.60
2022-12-11T19:54:08.058Z,56.20
2022-12-11T19:56:34.807Z,56.20
2022-12-11T19:59:02.183Z,57.00
2022-12-11T20:01:30.977Z,57.00
2022-12-11T20:03:59.494Z,57.50
2022-12-11T20:06:33.279Z,57.40
2022-12-11T20:09:00.258Z,58.00
2022-12-11T20:11:27.093Z,57.60
2022-12-11T20:13:55.538Z,57.90
2022-12-11T20:16:39.593Z,58.40
2022-12-11T20:19:08.990Z,59.70
2022-12-11T20:21:35.507Z,59.20
2022-12-11T20:24:02.099Z,58.40
2022-12-11T20:26:30.938Z,58.90
2022-12-11T20:28:57.688Z,59.30
2022-12-11T20:31:24.832Z,57.60
2022-12-11T20:33:52.262Z,58.40
2022-12-11T20:36:19.877Z,58.30
2022-12-11T20:38:46.593Z,58.30
2022-12-11T20:41:14.309Z,59.20
2022-12-11T20:43:40.933Z,58.90
2022-12-11T20:46:08.383Z,57.50
2022-12-11T20:48:35.379Z,57.50
2022-12-11T20:51:02.748Z,57.70
2022-12-11T20:53:29.514Z,58.00
2022-12-11T20:55:56.042Z,58.80
2022-12-11T20:58:22.976Z,59.70
2022-12-11T21:00:49.784Z,58.70
2022-12-11T21:03:16.392Z,59.70
2022-12-11T21:05:43.687Z,59.40
2022-12-11T21:08:10.396Z,58.50
2022-12-11T21:10:41.483Z,58.60
2022-12-11T21:13:08.534Z,60.00
2022-12-11T21:15:36.118Z,59.20
2022-12-11T21:18:02.802Z,59.40
2022-12-11T21:20:29.358Z,57.50
2022-12-11T21:22:57.534Z,57.70
2022-12-11T21:25:24.384Z,56.30
2022-12-11T21:27:51.531Z,57.50
2022-12-11T21:30:18.254Z,58.30
2022-12-11T21:32:44.896Z,58.10
2022-12-11T21:35:12.053Z,55.90
2022-12-11T21:37:41.644Z,57.20
2022-12-11T21:40:08.556Z,57.40
2022-12-11T21:42:35.105Z,57.00
2022-12-11T21:47:48.213Z,57.40
2022-12-11T21:50:14.719Z,56.10
2022-12-11T21:52:41.261Z,55.20
2022-12-11T21:55:08.003Z,55.00
2022-12-11T21:57:34.554Z,54.90
2022-12-11T22:00:01.098Z,55.70
2022-12-11T22:02:27.664Z,55.20
2022-12-11T22:04:54.281Z,56.00
2022-12-11T22:07:21.014Z,54.30
2022-12-11T22:09:47.583Z,55.40
2022-12-11T22:12:21.723Z,53.80
2022-12-11T22:14:48.415Z,54.40
2022-12-11T22:17:15.085Z,54.30
2022-12-11T22:19:41.623Z,54.70
2022-12-11T22:22:08.178Z,54.60
2022-12-11T22:24:34.807Z,54.30
2022-12-11T22:27:01.337Z,53.80
2022-12-11T22:29:28.041Z,52.90
2022-12-11T22:31:54.793Z,54.30
2022-12-11T22:34:21.590Z,54.30
2022-12-11T22:36:48.161Z,52.30
2022-12-11T22:39:15.200Z,53.50
2022-12-11T22:41:42.394Z,54.00
2022-12-11T22:44:13.334Z,54.20
2022-12-11T22:46:39.871Z,56.30
2022-12-11T22:49:06.494Z,55.50
2022-12-11T22:51:33.157Z,54.40
2022-12-11T22:53:59.725Z,55.10
2022-12-11T22:56:26.252Z,55.20
2022-12-11T22:58:52.810Z,56.10
2022-12-11T23:01:21.048Z,55.30
2022-12-11T23:03:48.254Z,54.80
2022-12-11T23:06:16.869Z,55.30
2022-12-11T23:08:43.869Z,54.90
2022-12-11T23:11:21.222Z,55.40
2022-12-11T23:13:47.758Z,55.70
2022-12-11T23:16:14.415Z,55.60
2022-12-11T23:18:41.109Z,55.50
2022-12-11T23:21:08.095Z,56.10
2022-12-11T23:23:34.910Z,54.30
2022-12-11T23:26:01.573Z,55.50
2022-12-11T23:28:28.181Z,55.30
2022-12-11T23:30:55.047Z,55.60
2022-12-11T23:33:21.612Z,56.30
2022-12-11T23:35:48.287Z,56.20
2022-12-11T23:38:16.412Z,57.30
2022-12-11T23:40:42.966Z,56.40
2022-12-11T23:43:09.497Z,56.00
2022-12-11T23:45:36.057Z,56.00
2022-12-11T23:48:02.666Z,55.40
2022-12-11T23:50:31.138Z,56.60
2022-12-11T23:52:57.671Z,57.30
2022-12-11T23:55:25.324Z,56.70
2022-12-11T23:57:51.840Z,57.40
